Laman API Video Percuma Terbaik

AVDBAPI.COM

Cari katalog, semak rekod, dan salin URL API bersih daripada papan pemuka pantas.

Telegram Join Our Telegram Community for Updates!
Today
0
Kemaskini Hari Ini
Censored
314089
Censored Videos
Total
474268
Total Videos

Senarai Video

Rekod terkini disusun mengikut masa kemas kini.

ID Nama CODE Kategori Dikemaskini API
263521 CARIBBEANCOMPR-011817 Matsumoto Mei CARIBBEANCOMPR-011817_004 Tanpa sensor 2025-08-28 23:58:30 API
263520 H-220802 Chiho Asaoka H-220802 Tanpa sensor 2025-08-28 23:58:20 API
263519 081521-01 Tengok alat seks pun dah buat kemaluan kau basah lencun 081521-01 Tanpa sensor 2025-08-28 23:58:10 API
263518 121920_001 Seks Tanpa Henti Bersama Hasumi Yoshioka 121920_001 Tanpa sensor 2025-08-28 23:58:00 API
263517 H0930-KI220505 Haruko Akashi, Wanita Menggoda Berusia 40 Tahun H0930-KI220505 Tanpa sensor 2025-08-28 23:57:50 API
263516 060321-485 Wanita matang cabul dengan puting menggoda yang nampak seksi dalam kimono 060321-485 Tanpa sensor 2025-08-28 23:57:40 API
263515 FC2-PPV-4503307 fc2-ppv-4503307 FC2-PPV-4503307 Tanpa sensor 2025-08-28 23:57:30 API
263514 HEYZO-2771 Saki [Saki] Orang ketiga juga pancut dalam faraj betul-betul di kawasan puting terbalik si Squirrel Gal Vol-3 HEYZO-2771 Tanpa sensor 2025-08-28 23:57:20 API
263513 C0930-KI220102 Tomoyo Koda Umur 31 Tahun C0930-KI220102 Tanpa sensor 2025-08-28 23:57:10 API
263512 H0930-ORI1628 Wanita Cantik Berusia 28 Tahun Yukiko Nishioka H0930-ORI1628 Tanpa sensor 2025-08-28 23:57:00 API
263511 H4610-KI220804 Gadis Cantik 20 Tahun Keiko Suzuki H4610-KI220804 Tanpa sensor 2025-08-28 23:56:50 API
263510 051422-001 Jiwa Seorang Pelakon - Tak pernah dengar pun, tapi aku akan layan ketiga-tiga mereka sekali gus 051422-001 Tanpa sensor 2025-08-28 23:56:40 API
263509 KB1556 Team Kimura Edisi Khas - KB1556 Tanpa sensor 2025-08-28 23:56:30 API
263508 081621-01 Temubual AV Amatir - Janji asalnya cuma nak buat blowjob, tapi sebab sedap sangat dia minta masukkan saja 081621-01 Tanpa sensor 2025-08-28 23:56:20 API
263507 HEYZO-2696 Maki Koizumi Guru Cantik Yang Kena NTR Vol.2 HEYZO-2696 Tanpa sensor 2025-08-28 23:56:10 API
263506 FC2-PPV-4501363 *Separuh harga, sambutan buku edisi baharu 28/7! Kempen Ubuna 18 tahun! Gadis lengan pendek nasional, pengalaman sebenar, fizikal dan mental yang kuat! FC2-PPV-4501363 Tanpa sensor 2025-08-28 23:56:00 API
263505 122220_001 Riina Okamoto - Edisi Khas - 122220_001 Tanpa sensor 2025-08-28 23:55:50 API
263504 060521-486 Wanita Matang Kembali Melakukan Peropero Anal Untuk Mari Onodera 060521-486 Tanpa sensor 2025-08-28 23:55:40 API
263503 011817-003 Wanita mengandung cantik yang sudah lupa rasa bersalah adalah yang paling ghairah 011817-003 Tanpa sensor 2025-08-28 23:55:30 API
263502 H-220804 Keiko Suzuki H-220804 Tanpa sensor 2025-08-28 23:55:20 API
263501 C0930-KI220104 Masumi Hoshina Gadis 20 Tahun C0930-KI220104 Tanpa sensor 2025-08-28 23:55:10 API
263500 H0930-KI220507 Manami Akai Umur 33 Tahun H0930-KI220507 Tanpa sensor 2025-08-28 23:55:00 API
263499 081721-01 Gadis amatur rambut pendek yang sangat ghairah dan ketagih seks 081721-01 Tanpa sensor 2025-08-28 23:54:50 API
263498 HEYZO-2745 Hitomi Taoka [Hitomi Taoka] Aku suruh perempuan amatur ni kene kencing Vol.3 HEYZO-2745 Tanpa sensor 2025-08-28 23:54:40 API
263497 SR037 Rekod Pengambilan Graduan Baharu No.037 Yumi [Rakaman Peribadi] SR037 Tanpa sensor 2025-08-28 23:54:30 API
263496 C-220102 Tomoyo Koda, 31 Tahun C-220102 Tanpa sensor 2025-08-28 23:54:20 API
263495 060821-487 Pancutan sperma mentah dalam faraj untuk persediaan mengandung 060821-487 Tanpa sensor 2025-08-28 23:54:10 API
263494 H0930-KI220508 Gadis Cantik 24 Tahun Ria Aoyama H0930-KI220508 Tanpa sensor 2025-08-28 23:54:00 API
263493 051822-001 Buku Gambar Khemak Rina Kawamura 051822-001 Tanpa sensor 2025-08-28 23:53:50 API
263492 H4610-KI220807 Gadis Cantik 21 Tahun Kitagawa Ai H4610-KI220807 Tanpa sensor 2025-08-28 23:53:40 API
263491 FC2-PPV-4505098 Si Mesum Terkejut, Si Pelik Marah! Kumpulan AI Comel Zhang Zhaopei Zhongshujiyao dengan Pengalaman Bertahun-tahun! 3) Nafsu Manusia yang Tak Terbendung... AI FC2-PPV-4505098 Tanpa sensor 2025-08-28 23:53:30 API
263490 081821-01 Pilihan Pussy Berharga - Sila lihat pussy Hibiki - 081821-01 Tanpa sensor 2025-08-28 23:53:20 API
263489 HEYZO-2746 Shiho Nagamine [Shiho Nagamine] Perkhidmatan lucah pembantu rumah yang bogel HEYZO-2746 Tanpa sensor 2025-08-28 23:53:10 API
263488 PP036 Malaikat Terjatuh No.036 Alisa PP036 Tanpa sensor 2025-08-28 23:53:00 API
263487 011817-004 Matsumoto Mei Bulanan 011817-004 Tanpa sensor 2025-08-28 23:52:50 API
263486 061021-488 Tukang cuci tempatan yang juga membersihkan kote 061021-488 Tanpa sensor 2025-08-28 23:52:40 API
263485 122620_001 Koleksi Model Suzumiya Non 122620_001 Tanpa sensor 2025-08-28 23:52:30 API
263484 052022-001 Kemasukan berterusan selama 180 minit ~ Masuk dan emut, emut dan masuk! 5 zakar pancut dalam faraj sampai dia menyerah kalah! ~ Bahagian 1 Emiri Momota 052022-001 Tanpa sensor 2025-08-28 23:52:20 API
263483 H-1628 Yukiko Nishioka H-1628 Tanpa sensor 2025-08-28 23:52:10 API
263482 H4610-KI220806 Gold Pack Untuk Babe 20 Tahun H4610-KI220806 Tanpa sensor 2025-08-28 23:52:00 API
263481 C0930-KI220106 Miki Tada Wanita Matang Berusia 51 Tahun C0930-KI220106 Tanpa sensor 2025-08-28 23:51:50 API
263480 HEYZO-2747 Aoi Kasahara [Aoi Kasahara] Kenikmatan dengan urutan erotik! -Kes Aoi Kasahara- HEYZO-2747 Tanpa sensor 2025-08-28 23:51:40 API
263479 081921-01 Gadis Cantik Berdada F Cup Diikat dan Dikongkek 081921-01 Tanpa sensor 2025-08-28 23:51:30 API
263478 061221-489 Gadis lembut berusia 28 tahun menunggu di depan pintu 061221-489 Tanpa sensor 2025-08-28 23:51:20 API
263477 ERK-027 Mikuru ERK-027 Mosaik 2025-08-28 23:51:10 API
263476 052122-001 Gila Susu! Hanya Susu Yang Menang! Hisap Tanpa Henti! Momoka Ogawa 052122-001 Tanpa sensor 2025-08-28 23:51:00 API
263475 122720_001 Penggambaran Ekstrem Bersama Miyuki Sakura 122720_001 Tanpa sensor 2025-08-28 23:50:50 API
263474 PP037 Malaikat Terjatuh No.037 Kaede PP037 Tanpa sensor 2025-08-28 23:50:40 API
263473 FC2-PPV-4504352 Semak pelbagai kelebihan eksklusif yang tersedia FC2-PPV-4504352 Tanpa sensor 2025-08-28 23:50:30 API
263472 C-220106 Miki Tada Wanita Matang Berusia 51 Tahun C-220106 Tanpa sensor 2025-08-28 23:50:20 API
ERK-027 Mikuru
ID: 263477
ERK-027
Kategori: Mosaik
Dikemaskini: 2025-08-28 23:51:10
API